Time;durP1;ratioP1;P1;durP2;ratioP2;P2;SDS_P1;SDS_P2;PMS_P1;PMS_P2;Temp;Humidity;BMP_temperature;BMP_pressure;BME280_temperature;BME280_humidity;BME280_pressure;Samples;Min_cycle;Max_cycle;Signal;HPM_P1;HPM_P2
2022/12/22 03:27:06;;;;;;;4.90;3.80;;;;;;;8.03;97.84;99695.04;105704;1290;71500;-76
2022/12/22 03:29:32;;;;;;;5.00;4.20;;;;;;;8.03;98.42;99692.40;105677;1288;58989;-76
2022/12/22 03:31:59;;;;;;;4.70;4.00;;;;;;;8.05;98.28;99687.03;105669;1292;60462;-76
2022/12/22 03:34:25;;;;;;;4.90;4.00;;;;;;;8.06;98.14;99680.02;105718;1290;59171;-77
2022/12/22 03:36:52;;;;;;;5.00;4.00;;;;;;;8.09;98.41;99675.46;105751;1291;59139;-76
2022/12/22 03:39:18;;;;;;;4.90;3.70;;;;;;;8.10;98.19;99670.52;105716;1291;59120;-76
2022/12/22 03:47:15;;;;;;;5.30;4.00;;;;;;;8.11;97.79;99662.12;105671;1291;73096;-77
2022/12/22 03:49:41;;;;;;;4.90;3.90;;;;;;;8.10;97.71;99659.18;105558;1290;69705;-76
2022/12/22 03:52:08;;;;;;;4.60;4.10;;;;;;;8.08;97.51;99660.41;105618;1291;59142;-76
2022/12/22 03:54:34;;;;;;;4.80;3.60;;;;;;;8.06;97.35;99656.68;105723;1292;59938;-76
2022/12/22 03:57:01;;;;;;;5.70;4.30;;;;;;;8.02;97.46;99646.00;105621;1291;60500;-76
2022/12/22 03:59:27;;;;;;;4.90;3.80;;;;;;;8.01;97.54;99644.64;105694;1291;59364;-76
2022/12/22 04:01:54;;;;;;;6.10;4.30;;;;;;;7.98;97.37;99645.27;105504;1293;59126;-76
2022/12/22 04:04:23;;;;;;;4.50;4.10;;;;;;;7.95;97.21;99642.42;105689;1292;71411;-76
2022/12/22 04:06:50;;;;;;;5.00;4.50;;;;;;;7.93;97.66;99638.58;105676;1291;61460;-76
2022/12/22 04:09:17;;;;;;;5.90;4.60;;;;;;;7.92;97.45;99631.69;105585;1281;60231;-76
2022/12/22 04:14:28;;;;;;;5.70;4.80;;;;;;;7.93;97.49;99625.33;105615;1291;70488;-76
2022/12/22 04:17:02;;;;;;;5.60;5.00;;;;;;;7.91;97.81;99627.80;105709;1282;72333;-76
2022/12/22 04:19:28;;;;;;;5.80;5.20;;;;;;;7.89;97.60;99623.23;105592;1286;62038;-76
2022/12/22 04:21:55;;;;;;;7.40;5.60;;;;;;;7.88;98.24;99621.96;105567;1285;60065;-76
2022/12/22 04:24:21;;;;;;;6.70;5.10;;;;;;;7.89;98.29;99620.08;105697;1292;74480;-76
2022/12/22 04:26:49;;;;;;;6.70;4.80;;;;;;;7.90;98.42;99617.03;105687;1290;59564;-76
2022/12/22 04:29:16;;;;;;;5.90;5.30;;;;;;;7.90;98.32;99611.91;105568;1291;72725;-76
2022/12/22 04:31:42;;;;;;;5.80;5.20;;;;;;;7.90;98.21;99605.02;105718;1292;60137;-76
2022/12/22 04:34:09;;;;;;;6.90;5.30;;;;;;;7.93;98.23;99600.66;105649;1282;60355;-76
2022/12/22 04:36:35;;;;;;;6.00;5.40;;;;;;;7.94;98.39;99603.98;105622;1292;74665;-76
2022/12/22 04:39:02;;;;;;;6.00;5.40;;;;;;;7.97;98.13;99608.23;105619;1288;60006;-76
2022/12/22 04:41:29;;;;;;;6.60;5.90;;;;;;;7.97;98.13;99607.70;105574;1292;73740;-76
2022/12/22 04:43:55;;;;;;;6.00;5.40;;;;;;;7.96;98.00;99604.77;105684;1290;60919;-76
2022/12/22 04:46:22;;;;;;;6.60;5.50;;;;;;;7.97;97.70;99606.69;105618;1291;59083;-76
2022/12/22 04:48:48;;;;;;;7.50;5.80;;;;;;;7.96;97.71;99602.01;105683;1292;60013;-76
2022/12/22 04:51:23;;;;;;;6.60;5.80;;;;;;;7.97;97.63;99598.44;105771;1290;70042;-77
2022/12/22 04:53:49;;;;;;;6.10;5.40;;;;;;;7.96;97.86;99595.51;105686;1290;59482;-76
2022/12/22 04:56:16;;;;;;;6.50;5.80;;;;;;;7.95;97.87;99589.23;105734;1290;60107;-76
2022/12/22 04:58:42;;;;;;;6.60;5.90;;;;;;;7.95;97.66;99584.55;105579;1285;59004;-77
2022/12/22 05:01:11;;;;;;;7.90;6.30;;;;;;;7.95;98.01;99577.46;105595;1290;59219;-77
2022/12/22 05:03:37;;;;;;;7.40;6.30;;;;;;;7.97;97.97;99567.92;105628;1285;69808;-77
2022/12/22 05:06:04;;;;;;;7.40;6.40;;;;;;;7.99;98.08;99564.23;105646;1292;72869;-76
2022/12/22 05:08:31;;;;;;;6.70;5.90;;;;;;;8.00;97.96;99563.00;105602;1284;59693;-76
2022/12/22 05:10:57;;;;;;;7.80;5.90;;;;;;;8.00;97.94;99558.38;105641;1284;58938;-76
2022/12/22 05:13:24;;;;;;;6.60;5.80;;;;;;;8.01;98.14;99557.54;105653;1291;74383;-76
2022/12/22 05:15:50;;;;;;;8.50;6.00;;;;;;;8.03;98.34;99557.14;105644;1290;59073;-76
2022/12/22 05:18:17;;;;;;;6.90;5.80;;;;;;;8.05;98.32;99550.95;105767;1276;72767;-76
2022/12/22 05:20:43;;;;;;;6.40;5.50;;;;;;;8.07;98.39;99549.83;105678;1291;59313;-76
2022/12/22 05:23:10;;;;;;;6.30;5.40;;;;;;;8.07;98.37;99546.46;105815;1290;59405;-76
2022/12/22 05:25:36;;;;;;;7.60;5.60;;;;;;;8.07;98.32;99540.32;105688;1292;59170;-76
2022/12/22 05:28:03;;;;;;;6.30;5.60;;;;;;;8.07;98.20;99536.25;105771;1291;58882;-76
2022/12/22 05:30:29;;;;;;;8.20;6.10;;;;;;;8.08;98.52;99537.56;105771;1292;72542;-76
2022/12/22 05:32:56;;;;;;;7.60;5.50;;;;;;;8.10;98.48;99534.84;105776;1290;59352;-76
2022/12/22 05:35:22;;;;;;;7.20;5.80;;;;;;;8.13;98.37;99530.19;105723;1292;59102;-76
2022/12/22 05:37:49;;;;;;;6.50;5.80;;;;;;;8.14;98.27;99530.58;105638;1289;59149;-76
2022/12/22 05:40:15;;;;;;;8.10;6.60;;;;;;;8.13;98.26;99524.79;105698;1291;59156;-76
2022/12/22 05:42:41;;;;;;;8.70;7.00;;;;;;;8.10;98.44;99524.02;105653;1284;58879;-76
2022/12/22 05:45:13;;;;;;;8.40;7.30;;;;;;;8.09;98.73;99527.38;105639;1291;59506;-76
2022/12/22 05:47:42;;;;;;;9.70;7.40;;;;;;;8.08;98.73;99526.27;105466;1284;59229;-76
2022/12/22 05:50:10;;;;;;;9.30;8.30;;;;;;;8.07;98.68;99522.00;105597;1292;73489;-76
2022/12/22 05:52:37;;;;;;;9.80;7.20;;;;;;;8.07;98.90;99517.23;105507;1294;71387;-76
2022/12/22 05:55:04;;;;;;;7.60;6.80;;;;;;;8.08;98.96;99515.75;105630;1290;59229;-76
2022/12/22 05:57:30;;;;;;;7.60;6.30;;;;;;;8.08;98.96;99511.69;105596;1285;61263;-76
2022/12/22 05:59:57;;;;;;;7.20;6.40;;;;;;;8.08;99.04;99508.49;105543;1292;59454;-76
2022/12/22 06:02:23;;;;;;;8.40;6.70;;;;;;;8.09;98.87;99508.30;105663;1290;59276;-76
2022/12/22 06:04:50;;;;;;;8.00;6.10;;;;;;;8.13;99.10;99503.23;105709;1282;69727;-76
2022/12/22 06:07:17;;;;;;;8.30;7.00;;;;;;;8.17;99.20;99497.73;105670;1291;59959;-76
2022/12/22 06:09:43;;;;;;;8.10;6.90;;;;;;;8.18;99.18;99496.34;105591;1285;60933;-76
2022/12/22 06:12:09;;;;;;;8.50;6.80;;;;;;;8.20;99.15;99493.14;105675;1293;58308;-76
2022/12/22 06:14:36;;;;;;;7.30;6.50;;;;;;;8.20;99.15;99490.83;105664;1282;59450;-76
2022/12/22 06:17:02;;;;;;;8.40;6.80;;;;;;;8.21;99.06;99491.25;105570;1292;59959;-76
2022/12/22 06:19:29;;;;;;;8.70;7.50;;;;;;;8.21;98.93;99491.25;105674;1290;59488;-76
2022/12/22 06:21:56;;;;;;;8.20;6.90;;;;;;;8.22;99.37;99489.71;105539;1291;59212;-76
2022/12/22 06:24:22;;;;;;;8.50;7.10;;;;;;;8.24;98.99;99489.37;105600;1284;60111;-76
2022/12/22 06:26:48;;;;;;;8.20;7.10;;;;;;;8.24;99.12;99484.56;105713;1288;59029;-76
2022/12/22 06:29:15;;;;;;;8.40;7.10;;;;;;;8.24;98.97;99482.58;105677;1291;59506;-76
2022/12/22 06:31:41;;;;;;;8.80;7.60;;;;;;;8.26;99.06;99486.61;105578;1290;58986;-76
2022/12/22 06:34:09;;;;;;;9.50;7.70;;;;;;;8.27;99.02;99486.23;105575;1292;59279;-77
2022/12/22 06:36:37;;;;;;;8.60;7.50;;;;;;;8.29;99.11;99486.17;105566;1291;60261;-77
2022/12/22 06:39:05;;;;;;;9.00;7.80;;;;;;;8.31;99.00;99481.26;105372;1291;231494;-77
2022/12/22 06:44:17;;;;;;;9.00;7.20;;;;;;;8.32;98.61;99480.73;105815;1290;74089;-77
2022/12/22 06:46:43;;;;;;;8.40;7.50;;;;;;;8.30;98.71;99474.67;105804;1284;59010;-77
2022/12/22 06:49:10;;;;;;;9.40;7.70;;;;;;;8.27;98.82;99472.34;105736;1284;60462;-78
2022/12/22 06:51:36;;;;;;;9.90;8.00;;;;;;;8.24;98.61;99467.05;105775;1291;59645;-77
2022/12/22 06:54:03;;;;;;;8.90;7.30;;;;;;;8.23;98.73;99469.20;105766;1291;71953;-77
2022/12/22 06:56:29;;;;;;;9.40;7.80;;;;;;;8.21;98.46;99464.84;105765;1291;71141;-77
2022/12/22 06:58:56;;;;;;;10.20;8.00;;;;;;;8.20;98.61;99463.20;105756;1290;59310;-77
2022/12/22 07:01:23;;;;;;;10.40;7.80;;;;;;;8.20;98.62;99464.98;105779;1292;59183;-77
2022/12/22 07:03:50;;;;;;;9.50;7.90;;;;;;;8.19;98.91;99463.46;105725;1291;74414;-77
2022/12/22 07:06:19;;;;;;;9.30;7.80;;;;;;;8.20;99.13;99468.65;105797;1291;59023;-78
2022/12/22 07:08:48;;;;;;;10.10;8.40;;;;;;;8.22;99.26;99470.37;105702;1284;72670;-77
2022/12/22 07:11:15;;;;;;;9.80;8.40;;;;;;;8.23;99.28;99469.80;105651;1292;59281;-77
2022/12/22 07:13:42;;;;;;;10.10;8.00;;;;;;;8.26;99.29;99467.92;105620;1291;61561;-77
2022/12/22 07:16:10;;;;;;;9.30;8.00;;;;;;;8.28;99.48;99470.95;105749;1291;73100;-77
2022/12/22 07:18:39;;;;;;;10.60;8.30;;;;;;;8.30;99.36;99469.02;105668;1294;70105;-77
2022/12/22 07:21:08;;;;;;;9.80;8.50;;;;;;;8.33;99.31;99468.47;105635;1291;73598;-77
2022/12/22 07:23:36;;;;;;;9.40;8.40;;;;;;;8.36;99.27;99469.60;105621;1291;60944;-77
2022/12/22 07:26:05;;;;;;;10.30;8.40;;;;;;;8.40;99.15;99470.01;105619;1291;59514;-77
2022/12/22 07:28:36;;;;;;;10.10;8.10;;;;;;;8.42;99.24;99469.30;105620;1287;72907;-77
2022/12/22 07:31:03;;;;;;;10.10;8.20;;;;;;;8.44;99.13;99469.98;105705;1291;69690;-77
2022/12/22 07:33:30;;;;;;;10.90;8.10;;;;;;;8.45;98.97;99469.58;105836;1291;73799;-77
2022/12/22 07:36:17;;;;;;;9.30;8.30;;;;;;;8.47;98.91;99464.77;105712;1292;59147;-77
2022/12/22 07:38:46;;;;;;;11.40;8.10;;;;;;;8.50;98.90;99460.88;105651;1290;59708;-77
2022/12/22 07:44:02;;;;;;;9.70;8.30;;;;;;;8.52;98.71;99459.70;105729;1294;71084;-77
2022/12/22 07:46:32;;;;;;;9.80;8.10;;;;;;;8.54;98.58;99459.17;105794;1291;72457;-77
2022/12/22 07:51:44;;;;;;;10.50;8.40;;;;;;;8.63;98.79;99455.64;105812;1291;58967;-77
2022/12/22 07:54:13;;;;;;;9.60;8.30;;;;;;;8.67;98.79;99455.65;105743;1287;73921;-77
2022/12/22 07:56:39;;;;;;;9.60;8.10;;;;;;;8.70;98.92;99452.77;105700;1290;69627;-78
2022/12/22 07:59:06;;;;;;;9.50;8.10;;;;;;;8.71;98.46;99451.23;105782;1284;73730;-77
2022/12/22 08:01:33;;;;;;;11.20;8.40;;;;;;;8.72;98.63;99453.68;105803;1284;61172;-72
2022/12/22 08:03:59;;;;;;;9.80;8.40;;;;;;;8.75;98.76;99445.96;105737;1284;60579;-71
2022/12/22 08:06:26;;;;;;;10.30;8.40;;;;;;;8.80;98.79;99446.60;105789;1283;59327;-71
2022/12/22 08:08:53;;;;;;;10.90;8.40;;;;;;;8.84;98.90;99447.08;105707;1286;69630;-71
2022/12/22 08:11:19;;;;;;;10.90;8.70;;;;;;;8.90;98.96;99448.49;105623;1287;71185;-71
2022/12/22 08:13:46;;;;;;;12.50;8.50;;;;;;;8.95;98.70;99447.34;105726;1291;59190;-71
2022/12/22 08:16:13;;;;;;;10.10;8.70;;;;;;;8.98;98.53;99447.41;105716;1291;59002;-71
2022/12/22 08:18:40;;;;;;;12.20;8.60;;;;;;;9.01;98.29;99452.09;105690;1287;73647;-71
2022/12/22 08:21:07;;;;;;;11.00;8.90;;;;;;;9.03;98.28;99452.96;105728;1287;70636;-71
2022/12/22 08:23:34;;;;;;;11.30;8.80;;;;;;;9.07;98.37;99454.13;105742;1284;71957;-72
2022/12/22 08:26:10;;;;;;;11.90;9.30;;;;;;;9.10;98.02;99459.10;105711;1284;61915;-72
2022/12/22 08:28:54;;;;;;;10.40;8.50;;;;;;;9.11;98.08;99456.88;105720;1290;58876;-72
2022/12/22 08:31:23;;;;;;;10.30;8.60;;;;;;;9.15;97.92;99457.30;105788;1284;74438;-71
2022/12/22 08:33:50;;;;;;;10.40;8.70;;;;;;;9.17;97.89;99455.64;105701;1291;70180;-72
2022/12/22 08:36:16;;;;;;;10.10;8.20;;;;;;;9.19;97.58;99459.02;105719;1291;72398;-72
2022/12/22 08:38:43;;;;;;;10.20;8.60;;;;;;;9.20;97.59;99454.83;105809;1291;58920;-72
2022/12/22 08:41:13;;;;;;;10.50;8.70;;;;;;;9.21;97.60;99455.13;105773;1292;59468;-72
2022/12/22 08:43:39;;;;;;;10.10;8.90;;;;;;;9.22;97.61;99455.08;105786;1290;73460;-72
2022/12/22 08:46:06;;;;;;;11.20;8.80;;;;;;;9.24;97.45;99456.31;105708;1284;71376;-72
2022/12/22 08:48:32;;;;;;;11.10;8.50;;;;;;;9.25;97.39;99457.23;105772;1291;58892;-72
2022/12/22 08:50:59;;;;;;;10.90;9.30;;;;;;;9.26;97.44;99454.98;105726;1291;58960;-72
2022/12/22 08:53:25;;;;;;;10.90;9.60;;;;;;;9.27;97.54;99456.10;105763;1285;59163;-72
2022/12/22 08:56:12;;;;;;;10.10;8.30;;;;;;;9.30;97.45;99455.05;105766;1290;75376;-71
2022/12/22 08:58:39;;;;;;;9.80;8.50;;;;;;;9.29;97.13;99456.55;105783;1285;58999;-72
2022/12/22 09:01:05;;;;;;;9.70;8.50;;;;;;;9.28;97.28;99459.27;105789;1283;72397;-72
2022/12/22 09:03:32;;;;;;;13.20;9.20;;;;;;;9.29;97.54;99461.08;105796;1291;60290;-72
2022/12/22 09:06:02;;;;;;;10.90;9.00;;;;;;;9.31;97.23;99467.63;105789;1283;60572;-72
2022/12/22 09:08:28;;;;;;;11.00;8.90;;;;;;;9.32;97.42;99470.86;105745;1285;74693;-72
2022/12/22 09:10:55;;;;;;;11.00;9.20;;;;;;;9.31;97.20;99471.45;105767;1291;68960;-72
2022/12/22 09:13:21;;;;;;;12.10;9.30;;;;;;;9.32;97.33;99471.55;105719;1284;60338;-72
2022/12/22 09:15:48;;;;;;;12.00;9.40;;;;;;;9.33;97.45;99474.41;105762;1285;59013;-72
2022/12/22 09:18:14;;;;;;;12.30;8.30;;;;;;;9.32;97.38;99473.63;105844;1283;59228;-72
2022/12/22 09:20:40;;;;;;;10.70;8.70;;;;;;;9.27;97.09;99475.44;105734;1290;59414;-72
2022/12/22 09:23:07;;;;;;;11.90;9.50;;;;;;;9.21;96.61;99476.50;105796;1291;59129;-72
2022/12/22 09:25:34;;;;;;;10.40;8.70;;;;;;;9.10;96.39;99478.20;105840;1289;59052;-72
2022/12/22 09:28:00;;;;;;;10.70;8.80;;;;;;;9.00;96.53;99480.89;105651;1283;59141;-71
2022/12/22 09:30:26;;;;;;;11.50;9.70;;;;;;;8.92;96.88;99479.95;105749;1291;59054;-72
2022/12/22 09:32:54;;;;;;;11.40;9.20;;;;;;;8.87;97.33;99478.60;105719;1292;58919;-72
2022/12/22 09:35:20;;;;;;;10.90;9.30;;;;;;;8.85;97.50;99477.27;105792;1291;72000;-72
2022/12/22 09:37:47;;;;;;;12.60;9.60;;;;;;;8.85;98.02;99488.25;105716;1292;59022;-72
2022/12/22 09:40:14;;;;;;;12.90;10.20;;;;;;;8.87;98.00;99491.45;105817;1290;61452;-72
2022/12/22 09:42:41;;;;;;;13.80;10.50;;;;;;;8.92;98.42;99487.24;105797;1283;59444;-72
2022/12/22 09:45:18;;;;;;;12.70;9.00;;;;;;;8.97;98.75;99488.27;105777;1292;73387;-72
2022/12/22 09:47:52;;;;;;;13.70;8.60;;;;;;;9.02;98.66;99492.84;105775;1284;71697;-72
2022/12/22 09:50:22;;;;;;;17.10;9.50;;;;;;;9.04;98.67;99493.27;105731;1286;71637;-72
2022/12/22 09:52:57;;;;;;;15.90;9.90;;;;;;;9.06;98.73;99494.41;105761;1292;59663;-71
2022/12/22 09:55:24;;;;;;;16.30;9.50;;;;;;;9.07;98.85;99496.94;105814;1290;59702;-72
2022/12/22 09:57:52;;;;;;;16.60;9.90;;;;;;;9.09;98.80;99498.49;105809;1282;58834;-72
2022/12/22 10:00:23;;;;;;;16.20;10.00;;;;;;;9.10;98.89;99497.80;105818;1291;70842;-72
2022/12/22 10:03:26;;;;;;;13.60;9.40;;;;;;;9.13;98.94;99499.17;105751;1284;72741;-72
2022/12/22 10:06:02;;;;;;;15.40;9.20;;;;;;;9.17;98.78;99504.48;105730;1284;60157;-72
2022/12/22 10:08:34;;;;;;;14.00;9.10;;;;;;;9.23;99.34;99508.17;105802;1291;58942;-72
2022/12/22 10:11:00;;;;;;;14.40;9.00;;;;;;;9.28;99.13;99510.33;105755;1291;75054;-72
2022/12/22 10:13:27;;;;;;;15.00;8.80;;;;;;;9.31;99.15;99511.58;105779;1291;71079;-72
2022/12/22 10:15:54;;;;;;;13.30;8.90;;;;;;;9.32;98.84;99512.27;105813;1290;58944;-71
2022/12/22 10:18:24;;;;;;;15.30;9.70;;;;;;;9.37;99.33;99514.64;105803;1284;61212;-72
2022/12/22 10:21:12;;;;;;;12.50;8.40;;;;;;;9.42;99.45;99510.44;105764;1290;60189;-71
2022/12/22 10:23:42;;;;;;;13.60;8.70;;;;;;;9.49;99.55;99510.79;105748;1292;74520;-72
2022/12/22 10:26:14;;;;;;;13.70;9.30;;;;;;;9.53;99.57;99512.98;105820;1288;71012;-72
2022/12/22 10:29:17;;;;;;;13.00;8.50;;;;;;;9.53;99.23;99515.58;105694;1285;72707;-72
2022/12/22 10:32:00;;;;;;;12.10;9.20;;;;;;;9.53;99.28;99512.11;105730;1284;62182;-71
2022/12/22 10:34:28;;;;;;;11.90;8.90;;;;;;;9.56;99.60;99508.50;105716;1291;58964;-71
2022/12/22 10:36:58;;;;;;;11.00;9.00;;;;;;;9.58;99.57;99506.52;105796;1284;74890;-71
2022/12/22 10:39:28;;;;;;;10.80;8.90;;;;;;;9.59;99.64;99503.30;105761;1290;69988;-71
2022/12/22 10:42:00;;;;;;;11.40;8.80;;;;;;;9.59;99.68;99512.67;105794;1284;73064;-72
2022/12/22 10:44:29;;;;;;;12.90;9.30;;;;;;;9.58;99.64;99511.56;105678;1284;61431;-71
2022/12/22 10:46:58;;;;;;;11.00;8.30;;;;;;;9.58;99.74;99513.02;105785;1291;60563;-72
2022/12/22 10:49:29;;;;;;;10.00;7.50;;;;;;;9.56;99.78;99515.92;105631;1283;73386;-71
2022/12/22 10:52:09;;;;;;;8.80;7.30;;;;;;;9.53;99.88;99516.75;105828;1291;70341;-71
2022/12/22 10:54:36;;;;;;;9.60;7.00;;;;;;;9.52;100.00;99525.96;105773;1284;71186;-72
2022/12/22 10:57:13;;;;;;;10.60;6.80;;;;;;;9.51;100.00;99523.92;105696;1291;60864;-71
2022/12/22 11:00:00;;;;;;;9.20;6.00;;;;;;;9.49;100.00;99528.44;105852;1285;59923;-71
2022/12/22 11:02:36;;;;;;;7.20;5.60;;;;;;;9.45;100.00;99535.20;105691;1291;74996;-71
2022/12/22 11:05:10;;;;;;;5.80;5.10;;;;;;;9.39;100.00;99541.00;105559;1287;70210;-71
2022/12/22 11:07:39;;;;;;;7.50;5.60;;;;;;;9.31;100.00;99547.19;105722;1290;72034;-72
2022/12/22 11:10:42;;;;;;;7.20;5.60;;;;;;;9.28;100.00;99552.99;105782;1291;61739;-71
2022/12/22 11:13:34;;;;;;;7.30;5.80;;;;;;;9.26;100.00;99555.35;105742;1290;59358;-71
2022/12/22 11:16:25;;;;;;;12.90;11.60;;;;;;;9.24;100.00;99557.94;105768;1291;72354;-71
2022/12/22 11:19:10;;;;;;;6.50;5.40;;;;;;;9.19;100.00;99562.63;105805;1291;69986;-71
2022/12/22 11:22:02;;;;;;;9.60;7.30;;;;;;;9.16;100.00;99563.02;105791;1283;71178;-71
2022/12/22 11:24:32;;;;;;;11.40;7.50;;;;;;;9.14;100.00;99566.46;105698;1291;59594;-72
2022/12/22 11:26:58;;;;;;;8.80;7.80;;;;;;;9.11;100.00;99570.39;105785;1291;60205;-71
2022/12/22 11:30:00;;;;;;;10.30;7.90;;;;;;;9.07;100.00;99576.46;105806;1291;58969;-71
2022/12/22 11:33:00;;;;;;;12.80;9.70;;;;;;;9.01;100.00;99579.88;105820;1290;70810;-71
2022/12/22 11:36:14;;;;;;;13.30;9.30;;;;;;;8.93;100.00;99579.54;105717;1291;71680;-71
2022/12/22 11:38:48;;;;;;;14.30;9.90;;;;;;;8.88;100.00;99579.73;105361;1292;61089;-71
2022/12/22 11:41:33;;;;;;;18.10;14.00;;;;;;;8.83;100.00;99579.82;105723;1285;60118;-71
2022/12/22 11:44:36;;;;;;;17.80;11.80;;;;;;;8.80;100.00;99581.95;105726;1291;73782;-71
2022/12/22 11:47:20;;;;;;;21.50;15.90;;;;;;;8.77;100.00;99584.21;105747;1292;70754;-71
2022/12/22 11:50:26;;;;;;;19.70;13.80;;;;;;;8.76;100.00;99587.09;105777;1290;72503;-71
2022/12/22 11:53:50;;;;;;;17.60;12.80;;;;;;;8.79;100.00;99582.42;105756;1284;60692;-71
2022/12/22 11:56:28;;;;;;;17.90;11.90;;;;;;;8.82;100.00;99585.23;105794;1290;59355;-71
2022/12/22 11:59:33;;;;;;;18.70;13.40;;;;;;;8.88;100.00;99591.58;105753;1291;73125;-71
2022/12/22 12:02:25;;;;;;;15.60;12.00;;;;;;;8.90;100.00;99599.53;105772;1291;70884;-71
2022/12/22 12:05:01;;;;;;;14.80;10.30;;;;;;;8.99;100.00;99600.58;105772;1291;71666;-71
2022/12/22 12:07:35;;;;;;;14.60;10.40;;;;;;;9.08;100.00;99605.12;105789;1291;61059;-71
2022/12/22 12:10:43;;;;;;;13.90;9.80;;;;;;;9.13;100.00;99610.94;105814;1291;60108;-71
2022/12/22 12:13:44;;;;;;;13.20;9.30;;;;;;;9.17;100.00;99610.98;105558;1286;72820;-71
2022/12/22 12:16:52;;;;;;;12.90;9.20;;;;;;;9.17;100.00;99614.44;105643;1288;71266;-74
2022/12/22 12:19:41;;;;;;;13.10;9.40;;;;;;;9.19;100.00;99616.77;105321;1297;72753;-71
2022/12/22 12:22:17;;;;;;;15.20;9.50;;;;;;;9.24;100.00;99615.75;105822;1292;61314;-71
2022/12/22 12:24:47;;;;;;;13.30;9.00;;;;;;;9.27;100.00;99621.27;105763;1290;59728;-71
2022/12/22 12:27:16;;;;;;;13.50;9.00;;;;;;;9.30;100.00;99619.66;105816;1288;74532;-71
2022/12/22 12:30:03;;;;;;;13.00;9.30;;;;;;;9.28;100.00;99628.16;105791;1283;69207;-71
2022/12/22 12:33:35;;;;;;;12.70;9.10;;;;;;;9.25;100.00;99627.27;105737;1291;73736;-70
2022/12/22 12:36:17;;;;;;;12.40;8.70;;;;;;;9.26;100.00;99620.23;105418;1299;60498;-70
2022/12/22 12:39:03;;;;;;;11.80;8.90;;;;;;;9.33;100.00;99624.89;105831;1290;59616;-71
2022/12/22 12:41:57;;;;;;;13.40;8.70;;;;;;;9.42;100.00;99625.60;105717;1292;73783;-71
2022/12/22 12:44:27;;;;;;;13.80;9.80;;;;;;;9.53;99.96;99633.85;105816;1290;69749;-71
2022/12/22 12:47:15;;;;;;;12.10;9.10;;;;;;;9.56;99.65;99643.33;105748;1291;70827;-71
2022/12/22 12:49:55;;;;;;;11.90;8.20;;;;;;;9.56;99.37;99646.67;105792;1290;62217;-71
2022/12/22 12:52:42;;;;;;;11.60;8.30;;;;;;;9.52;98.95;99654.33;105835;1290;60123;-71
2022/12/22 12:55:32;;;;;;;13.80;9.70;;;;;;;9.46;98.94;99658.20;105760;1290;74750;-71
2022/12/22 12:58:02;;;;;;;13.20;9.40;;;;;;;9.39;98.87;99663.85;105735;1292;72663;-71
2022/12/22 13:00:31;;;;;;;12.40;8.50;;;;;;;9.32;99.19;99669.58;105719;1291;70969;-71
2022/12/22 13:02:58;;;;;;;13.70;9.00;;;;;;;9.24;99.34;99684.34;105859;1292;60396;-70
2022/12/22 13:05:49;;;;;;;14.60;9.60;;;;;;;9.16;99.37;99682.73;105722;1292;61754;-71
2022/12/22 13:08:28;;;;;;;12.80;8.90;;;;;;;9.12;99.39;99687.78;105804;1290;74110;-70
2022/12/22 13:10:54;;;;;;;14.80;10.20;;;;;;;9.08;99.47;99684.98;105780;1288;69547;-71
2022/12/22 13:13:21;;;;;;;16.20;11.00;;;;;;;9.08;99.30;99690.06;105831;1285;58914;-71
2022/12/22 13:16:08;;;;;;;16.20;9.80;;;;;;;9.03;98.81;99693.16;105790;1290;58943;-71
2022/12/22 13:18:42;;;;;;;15.10;10.40;;;;;;;9.03;98.35;99688.15;105839;1292;60235;-70
2022/12/22 13:21:36;;;;;;;13.70;9.20;;;;;;;9.04;98.11;99694.13;105858;1291;72855;-70
2022/12/22 13:24:23;;;;;;;14.30;9.10;;;;;;;9.06;98.05;99696.39;105848;1290;71240;-70
2022/12/22 13:26:54;;;;;;;15.30;10.40;;;;;;;9.05;97.84;99699.64;105835;1292;71350;-70
2022/12/22 13:29:21;;;;;;;15.20;9.80;;;;;;;9.08;97.92;99699.06;105754;1290;62067;-70
2022/12/22 13:31:53;;;;;;;15.40;10.80;;;;;;;9.10;97.82;99708.00;105808;1284;58973;-70
2022/12/22 13:34:41;;;;;;;15.80;10.30;;;;;;;9.14;97.84;99717.98;105763;1290;72693;-70
2022/12/22 13:37:28;;;;;;;14.40;10.00;;;;;;;9.12;97.56;99722.75;105825;1284;69904;-70
2022/12/22 13:40:06;;;;;;;14.40;9.50;;;;;;;9.13;97.66;99731.77;105737;1287;70552;-70
2022/12/22 13:43:04;;;;;;;16.30;10.40;;;;;;;9.12;97.33;99735.29;105795;1286;60432;-70
2022/12/22 13:45:40;;;;;;;14.80;9.80;;;;;;;9.23;97.13;99736.37;105686;1292;58855;-70
2022/12/22 13:48:23;;;;;;;14.20;9.80;;;;;;;9.41;96.39;99736.11;105840;1291;73916;-70
2022/12/22 13:50:52;;;;;;;14.10;9.10;;;;;;;9.57;95.13;99745.61;105801;1292;69812;-70
2022/12/22 13:53:33;;;;;;;14.30;9.80;;;;;;;9.65;94.12;99744.02;105883;1292;70144;-70
2022/12/22 13:56:26;;;;;;;13.50;9.10;;;;;;;9.69;93.03;99754.63;105796;1288;60298;-70
2022/12/22 13:58:58;;;;;;;12.40;8.60;;;;;;;9.73;92.27;99748.02;105859;1289;61310;-70
2022/12/22 14:01:25;;;;;;;12.00;9.00;;;;;;;9.67;91.89;99749.60;105702;1290;76139;-70
2022/12/22 14:03:58;;;;;;;13.60;9.20;;;;;;;9.69;92.23;99746.73;105775;1291;69629;-70
2022/12/22 14:06:36;;;;;;;11.80;7.50;;;;;;;9.70;90.97;99750.00;105619;1298;71222;-70
2022/12/22 14:09:13;;;;;;;13.50;8.70;;;;;;;9.75;90.30;99750.63;105750;1291;60755;-71
2022/12/22 14:11:43;;;;;;;12.70;9.20;;;;;;;10.18;90.48;99755.98;105815;1292;59475;-71
2022/12/22 14:14:30;;;;;;;12.40;8.80;;;;;;;10.54;87.87;99761.23;105799;1291;74427;-71
2022/12/22 14:16:59;;;;;;;13.30;8.40;;;;;;;10.83;86.53;99760.67;105722;1290;71307;-71
2022/12/22 14:19:30;;;;;;;12.10;8.30;;;;;;;11.21;84.81;99763.76;105862;1292;71127;-71
2022/12/22 14:22:23;;;;;;;13.90;8.30;;;;;;;11.22;82.92;99763.42;105851;1284;59520;-71
2022/12/22 14:24:53;;;;;;;12.00;8.70;;;;;;;11.22;83.22;99767.11;105754;1292;60136;-69
2022/12/22 14:27:33;;;;;;;12.70;8.90;;;;;;;11.56;82.25;99765.84;105743;1295;74687;-69
2022/12/22 14:30:03;;;;;;;12.70;8.60;;;;;;;11.94;80.61;99759.02;105845;1291;69712;-69
2022/12/22 14:32:41;;;;;;;13.30;8.40;;;;;;;12.20;78.60;99760.02;105827;1298;73781;-70
2022/12/22 14:35:19;;;;;;;11.10;8.40;;;;;;;12.32;77.62;99765.60;105815;1290;61776;-69
2022/12/22 14:38:06;;;;;;;12.50;8.70;;;;;;;12.44;76.23;99766.66;105861;1288;59742;-70
2022/12/22 14:40:39;;;;;;;12.20;8.70;;;;;;;12.54;75.26;99765.20;105775;1292;73778;-70
2022/12/22 14:43:27;;;;;;;12.70;8.30;;;;;;;12.36;74.76;99766.41;105710;1298;70866;-71
2022/12/22 14:46:03;;;;;;;11.70;8.70;;;;;;;11.90;75.80;99770.80;105811;1284;72764;-71
2022/12/22 14:48:36;;;;;;;13.30;9.00;;;;;;;11.48;76.94;99780.58;105747;1291;62111;-71
2022/12/22 14:51:04;;;;;;;12.90;7.70;;;;;;;11.08;77.87;99784.23;105836;1291;58966;-71
2022/12/22 14:53:48;;;;;;;11.60;7.80;;;;;;;10.71;78.67;99786.80;105731;1296;73162;-71
2022/12/22 14:56:16;;;;;;;12.40;8.20;;;;;;;10.28;79.84;99786.17;105745;1290;70517;-71
2022/12/22 14:58:45;;;;;;;11.00;7.40;;;;;;;9.91;81.11;99786.38;105718;1291;72529;-71
2022/12/22 15:01:23;;;;;;;10.20;7.30;;;;;;;9.58;82.50;99787.10;105752;1282;60455;-71
2022/12/22 15:04:06;;;;;;;12.00;7.20;;;;;;;9.32;83.12;99784.36;105843;1292;60420;-71
2022/12/22 15:06:36;;;;;;;12.80;7.30;;;;;;;9.09;83.98;99787.71;105781;1292;75107;-71
2022/12/22 15:09:06;;;;;;;11.80;7.90;;;;;;;8.91;84.68;99788.43;105752;1289;70887;-71
2022/12/22 15:11:34;;;;;;;11.00;7.60;;;;;;;8.75;85.17;99792.35;105752;1292;71400;-71
2022/12/22 15:14:02;;;;;;;11.90;8.20;;;;;;;8.58;85.73;99802.59;105865;1292;61208;-71
2022/12/22 15:16:29;;;;;;;12.40;8.30;;;;;;;8.43;86.63;99808.19;105757;1290;59320;-71
2022/12/22 15:18:56;;;;;;;12.00;7.50;;;;;;;8.29;87.00;99810.02;105668;1291;74691;-71
2022/12/22 15:21:22;;;;;;;13.10;7.40;;;;;;;8.13;87.93;99815.69;105772;1292;69106;-71
2022/12/22 15:23:48;;;;;;;11.40;7.40;;;;;;;8.00;89.02;99824.80;105785;1292;59683;-71
2022/12/22 15:26:15;;;;;;;11.80;7.20;;;;;;;7.90;89.72;99830.35;105702;1291;59034;-71
2022/12/22 15:28:41;;;;;;;12.20;6.80;;;;;;;7.80;90.10;99829.55;105784;1291;58796;-71
2022/12/22 15:31:14;;;;;;;11.00;6.70;;;;;;;7.73;90.55;99829.19;105796;1291;59438;-71
2022/12/22 15:33:41;;;;;;;11.20;7.20;;;;;;;7.64;90.81;99826.68;105798;1292;71583;-71
2022/12/22 15:36:11;;;;;;;12.80;7.90;;;;;;;7.58;91.02;99822.63;105665;1288;71454;-71